Time;durP1;ratioP1;P1;durP2;ratioP2;P2;SDS_P1;SDS_P2;PMS_P1;PMS_P2;Temp;Humidity;BMP_temperature;BMP_pressure;BME280_temperature;BME280_humidity;BME280_pressure;Samples;Min_cycle;Max_cycle;Signal;HPM_P1;HPM_P2
2022/08/30 00:01:27;;;;;;;;;;;;;;;15.37;100.00;100328.59;3058760;19;912;-50
2022/08/30 00:02:31;;;;;;;;;;;;;;;15.38;100.00;100331.16;3058081;19;1846;-51
2022/08/30 00:03:36;;;;;;;;;;;;;;;15.32;100.00;100320.94;3058469;19;846;-50
2022/08/30 00:04:40;;;;;;;;;;;;;;;15.40;100.00;100326.53;3058273;19;949;-50
2022/08/30 00:05:44;;;;;;;;;;;;;;;15.42;100.00;100327.25;3058094;19;1003;-51
2022/08/30 00:06:49;;;;;;;;;;;;;;;15.44;100.00;100325.28;3058705;19;869;-49
2022/08/30 00:07:51;;;;;;;;;;;;;;;15.46;100.00;100328.66;3058092;19;894;-50
2022/08/30 00:08:56;;;;;;;;;;;;;;;15.52;100.00;100331.84;3058404;19;846;-50
2022/08/30 00:09:57;;;;;;;;;;;;;;;15.57;100.00;100324.28;3056994;19;1067;-50
2022/08/30 00:11:03;;;;;;;;;;;;;;;15.61;100.00;100328.41;3058514;19;947;-50
2022/08/30 00:12:05;;;;;;;;;;;;;;;15.66;100.00;100328.88;3058098;19;870;-50
2022/08/30 00:13:10;;;;;;;;;;;;;;;15.71;100.00;100321.25;3058443;19;932;-49
2022/08/30 00:14:12;;;;;;;;;;;;;;;15.77;100.00;100324.28;3058307;19;941;-50
2022/08/30 00:15:17;;;;;;;;;;;;;;;15.84;100.00;100332.66;3058259;19;951;-50
2022/08/30 00:16:20;;;;;;;;;;;;;;;15.89;100.00;100337.66;3058086;19;920;-51
2022/08/30 00:17:25;;;;;;;;;;;;;;;15.93;100.00;100331.91;3058210;19;985;-49
2022/08/30 00:18:28;;;;;;;;;;;;;;;15.95;100.00;100340.66;3058196;19;912;-50
2022/08/30 00:19:32;;;;;;;;;;;;;;;15.92;100.00;100335.56;3058296;19;1264;-50
2022/08/30 00:20:35;;;;;;;;;;;;;;;15.98;100.00;100334.16;3058267;19;873;-48
2022/08/30 00:21:39;;;;;;;;;;;;;;;15.96;100.00;100339.69;3058417;19;940;-50
2022/08/30 00:22:41;;;;;;;;;;;;;;;15.95;100.00;100348.75;3057850;19;1877;-49
2022/08/30 00:23:46;;;;;;;;;;;;;;;15.93;100.00;100348.03;3057983;19;917;-50
2022/08/30 00:24:48;;;;;;;;;;;;;;;15.90;100.00;100353.69;3058377;19;1158;-49
2022/08/30 00:25:52;;;;;;;;;;;;;;;15.88;100.00;100352.94;3058028;19;1665;-51
2022/08/30 00:26:54;;;;;;;;;;;;;;;15.84;100.00;100354.19;3057851;19;917;-51
2022/08/30 00:27:59;;;;;;;;;;;;;;;15.81;100.00;100349.09;3057311;19;944;-50
2022/08/30 00:29:01;;;;;;;;;;;;;;;15.78;100.00;100357.41;3057026;19;993;-49
2022/08/30 00:30:05;;;;;;;;;;;;;;;15.75;100.00;100355.00;3058198;19;897;-50
2022/08/30 00:31:11;;;;;;;;;;;;;;;15.74;100.00;100354.13;3057914;19;925;-50
2022/08/30 00:32:16;;;;;;;;;;;;;;;15.72;100.00;100356.09;3058112;19;941;-51
2022/08/30 00:33:21;;;;;;;;;;;;;;;15.70;100.00;100360.75;3058081;19;1032;-49
2022/08/30 00:34:23;;;;;;;;;;;;;;;15.67;100.00;100360.19;3057948;19;976;-49
2022/08/30 00:35:27;;;;;;;;;;;;;;;15.65;100.00;100354.06;3057811;19;1220;-50
2022/08/30 00:36:29;;;;;;;;;;;;;;;15.63;100.00;100356.88;3058100;19;948;-49
2022/08/30 00:37:34;;;;;;;;;;;;;;;15.62;100.00;100357.00;3058090;19;913;-48
2022/08/30 00:38:36;;;;;;;;;;;;;;;15.59;100.00;100350.03;3057800;19;869;-50
2022/08/30 00:39:41;;;;;;;;;;;;;;;15.56;100.00;100349.47;3057663;19;1200;-50
2022/08/30 00:40:43;;;;;;;;;;;;;;;15.56;100.00;100349.47;3058284;19;842;-50
2022/08/30 00:41:47;;;;;;;;;;;;;;;15.54;100.00;100356.78;3056627;19;1041;-50
2022/08/30 00:42:49;;;;;;;;;;;;;;;15.52;100.00;100353.34;3057188;19;945;-50
2022/08/30 00:43:59;;;;;;;;;;;;;;;15.49;100.00;100349.94;3057534;19;1035;-50
2022/08/30 00:45:09;;;;;;;;;;;;;;;15.47;100.00;100341.16;3058242;19;913;-50
2022/08/30 00:46:14;;;;;;;;;;;;;;;15.46;100.00;100350.19;3057598;19;994;-49
2022/08/30 00:47:16;;;;;;;;;;;;;;;15.44;100.00;100344.13;3057114;19;896;-51
2022/08/30 00:48:20;;;;;;;;;;;;;;;15.42;100.00;100345.22;3057015;19;967;-50
2022/08/30 00:49:22;;;;;;;;;;;;;;;15.41;100.00;100344.38;3057962;19;898;-50
2022/08/30 00:50:29;;;;;;;;;;;;;;;15.39;100.00;100340.09;3056374;19;1109;-51
2022/08/30 00:51:32;;;;;;;;;;;;;;;15.37;100.00;100340.22;3056935;19;932;-51
2022/08/30 00:52:37;;;;;;;;;;;;;;;15.37;100.00;100344.75;3056541;19;949;-50
2022/08/30 00:53:42;;;;;;;;;;;;;;;15.34;100.00;100329.72;3056919;19;976;-50
2022/08/30 00:54:44;;;;;;;;;;;;;;;15.32;100.00;100342.44;3056614;19;1236;-50
2022/08/30 00:55:49;;;;;;;;;;;;;;;15.32;100.00;100334.38;3056684;19;1004;-51
2022/08/30 00:56:54;;;;;;;;;;;;;;;15.31;100.00;100329.13;3056895;19;1198;-51
2022/08/30 00:57:57;;;;;;;;;;;;;;;15.28;100.00;100330.25;3056857;19;1189;-51
2022/08/30 00:59:04;;;;;;;;;;;;;;;15.29;100.00;100331.94;3057047;19;1051;-51
2022/08/30 01:00:07;;;;;;;;;;;;;;;15.28;100.00;100327.53;3057520;19;928;-50
2022/08/30 01:01:12;;;;;;;;;;;;;;;15.27;100.00;100328.53;3057942;19;956;-51
2022/08/30 01:02:15;;;;;;;;;;;;;;;15.27;100.00;100327.66;3057550;19;913;-51
2022/08/30 01:03:20;;;;;;;;;;;;;;;15.25;100.00;100325.09;3056671;19;1853;-50
2022/08/30 01:04:22;;;;;;;;;;;;;;;15.24;100.00;100327.91;3056590;19;1020;-50
2022/08/30 01:05:27;;;;;;;;;;;;;;;15.23;100.00;100319.00;3056673;19;847;-50
2022/08/30 01:06:28;;;;;;;;;;;;;;;15.24;100.00;100318.03;3056554;19;882;-49
2022/08/30 01:07:36;;;;;;;;;;;;;;;15.25;100.00;100321.56;3056277;19;974;-49
2022/08/30 01:08:37;;;;;;;;;;;;;;;15.25;100.00;100327.78;3056852;19;1246;-51
2022/08/30 01:09:42;;;;;;;;;;;;;;;15.25;100.00;100325.09;3057702;19;988;-50
2022/08/30 01:10:44;;;;;;;;;;;;;;;15.24;100.00;100318.03;3057162;19;1433;-51
2022/08/30 01:11:48;;;;;;;;;;;;;;;15.23;100.00;100319.00;3057721;19;912;-50
2022/08/30 01:12:50;;;;;;;;;;;;;;;15.23;100.00;100316.31;3057275;19;1022;-50
2022/08/30 01:13:55;;;;;;;;;;;;;;;15.22;100.00;100319.97;3056394;19;1694;-50
2022/08/30 01:14:57;;;;;;;;;;;;;;;15.22;100.00;100317.28;3056730;19;928;-50
2022/08/30 01:16:01;;;;;;;;;;;;;;;15.23;100.00;100318.16;3056609;19;1051;-50
2022/08/30 01:17:04;;;;;;;;;;;;;;;15.21;100.00;100312.94;3057392;19;925;-49
2022/08/30 01:18:10;;;;;;;;;;;;;;;15.22;100.00;100319.97;3056493;19;976;-49
2022/08/30 01:19:20;;;;;;;;;;;;;;;15.21;100.00;100317.44;3056580;19;1087;-50
2022/08/30 01:20:29;;;;;;;;;;;;;;;15.21;100.00;100315.63;3057588;19;909;-50
2022/08/30 01:21:50;;;;;;;;;;;;;;;15.19;100.00;100317.56;3053857;19;976;-50
2022/08/30 01:22:51;;;;;;;;;;;;;;;15.16;100.00;100317.81;3056442;19;1206;-51
2022/08/30 01:23:57;;;;;;;;;;;;;;;15.14;100.00;100327.84;3056455;19;1848;-50
2022/08/30 01:24:59;;;;;;;;;;;;;;;15.13;100.00;100315.38;3056507;19;928;-51
2022/08/30 01:26:05;;;;;;;;;;;;;;;15.11;100.00;100320.03;3056916;19;832;-50
2022/08/30 01:27:07;;;;;;;;;;;;;;;15.09;100.00;100319.31;3056428;19;920;-49
2022/08/30 01:28:12;;;;;;;;;;;;;;;15.06;100.00;100320.44;3056465;19;902;-52
2022/08/30 01:29:17;;;;;;;;;;;;;;;15.05;100.00;100318.72;3056348;19;991;-51
2022/08/30 01:30:22;;;;;;;;;;;;;;;15.04;100.00;100319.69;3056243;19;1387;-50
2022/08/30 01:31:28;;;;;;;;;;;;;;;15.02;100.00;100329.72;3056450;19;924;-51
2022/08/30 01:32:30;;;;;;;;;;;;;;;15.02;100.00;100323.47;3057267;19;985;-50
2022/08/30 01:33:36;;;;;;;;;;;;;;;14.99;100.00;100326.41;3057260;19;825;-50
2022/08/30 01:34:38;;;;;;;;;;;;;;;14.97;100.00;100323.84;3057484;19;904;-49
2022/08/30 01:35:53;;;;;;;;;;;;;;;14.98;100.00;100313.94;3057147;19;1267;-51
2022/08/30 01:36:54;;;;;;;;;;;;;;;14.97;100.00;100325.72;3057370;19;991;-51
2022/08/30 01:37:59;;;;;;;;;;;;;;;14.97;100.00;100320.34;3056690;19;782;-50
2022/08/30 01:39:01;;;;;;;;;;;;;;;14.96;100.00;100326.69;3056398;19;870;-50
2022/08/30 01:40:06;;;;;;;;;;;;;;;14.95;100.00;100325.84;3056129;19;1028;-51
2022/08/30 01:41:10;;;;;;;;;;;;;;;14.95;100.00;100322.28;3057309;19;873;-51
2022/08/30 01:42:16;;;;;;;;;;;;;;;14.95;100.00;100317.78;3055290;19;960;-51
2022/08/30 01:43:18;;;;;;;;;;;;;;;14.94;100.00;100320.59;3057366;19;957;-51
2022/08/30 01:44:22;;;;;;;;;;;;;;;14.95;100.00;100322.28;3055574;19;1836;-49
2022/08/30 01:45:24;;;;;;;;;;;;;;;14.93;100.00;100313.50;3056500;19;873;-50
2022/08/30 01:46:34;;;;;;;;;;;;;;;14.93;100.00;100325.09;3057130;19;956;-52
2022/08/30 01:47:36;;;;;;;;;;;;;;;14.93;100.00;100324.25;3057314;19;835;-50
2022/08/30 01:48:41;;;;;;;;;;;;;;;14.91;100.00;100320.81;3056787;19;938;-50
2022/08/30 01:49:54;;;;;;;;;;;;;;;14.90;100.00;100327.19;3055462;19;1135;-50
2022/08/30 01:50:59;;;;;;;;;;;;;;;14.89;100.00;100322.78;3056961;19;857;-51
2022/08/30 01:52:01;;;;;;;;;;;;;;;14.87;100.00;100322.03;3057010;19;947;-50
2022/08/30 01:53:05;;;;;;;;;;;;;;;14.86;100.00;100323.03;3057295;19;913;-51
2022/08/30 01:54:07;;;;;;;;;;;;;;;14.86;100.00;100323.03;3057081;19;956;-50
2022/08/30 01:55:12;;;;;;;;;;;;;;;14.85;100.00;100316.81;3057015;19;1024;-50
2022/08/30 01:56:14;;;;;;;;;;;;;;;14.86;100.00;100323.03;3057224;19;1154;-51
2022/08/30 01:57:20;;;;;;;;;;;;;;;14.85;100.00;100324.88;3057154;19;980;-51
2022/08/30 01:58:22;;;;;;;;;;;;;;;14.84;100.00;100314.25;3056192;19;926;-51
2022/08/30 01:59:27;;;;;;;;;;;;;;;14.84;100.00;100314.25;3056071;19;1031;-51
2022/08/30 02:00:29;;;;;;;;;;;;;;;14.84;100.00;100319.63;3056750;19;993;-51
2022/08/30 02:01:35;;;;;;;;;;;;;;;14.84;100.00;100308.88;3057117;19;925;-51
2022/08/30 02:02:37;;;;;;;;;;;;;;;14.83;100.00;100312.56;3055907;19;960;-51
2022/08/30 02:03:43;;;;;;;;;;;;;;;14.83;100.00;100316.09;3056370;19;893;-50
2022/08/30 02:04:45;;;;;;;;;;;;;;;14.84;100.00;100308.88;3055689;19;1845;-51
2022/08/30 02:05:49;;;;;;;;;;;;;;;14.82;100.00;100306.31;3056968;19;843;-51
2022/08/30 02:06:52;;;;;;;;;;;;;;;14.82;100.00;100297.41;3056687;19;989;-51
2022/08/30 02:07:56;;;;;;;;;;;;;;;14.86;100.00;100306.91;3057105;19;960;-51
2022/08/30 02:08:59;;;;;;;;;;;;;;;14.84;100.00;100298.16;3056632;19;889;-51
2022/08/30 02:10:03;;;;;;;;;;;;;;;14.84;100.00;100298.16;3056644;19;1733;-50
2022/08/30 02:11:05;;;;;;;;;;;;;;;14.83;100.00;100301.81;3056683;19;1036;-50
2022/08/30 02:12:10;;;;;;;;;;;;;;;14.82;100.00;100298.25;3056961;19;959;-50
2022/08/30 02:13:12;;;;;;;;;;;;;;;14.84;100.00;100292.78;3056851;19;956;-50
2022/08/30 02:14:17;;;;;;;;;;;;;;;14.83;100.00;100297.28;3056994;19;980;-51
2022/08/30 02:15:21;;;;;;;;;;;;;;;14.84;100.00;100290.09;3056585;19;1020;-52
2022/08/30 02:16:27;;;;;;;;;;;;;;;14.86;100.00;100288.09;3057027;19;1003;-52
2022/08/30 02:17:29;;;;;;;;;;;;;;;14.85;100.00;100291.78;3056642;19;1012;-51
2022/08/30 02:18:34;;;;;;;;;;;;;;;14.85;100.00;100289.97;3057014;19;886;-49
2022/08/30 02:19:36;;;;;;;;;;;;;;;14.84;100.00;100287.41;3056310;19;972;-50
2022/08/30 02:20:41;;;;;;;;;;;;;;;14.84;100.00;100295.47;3056760;19;964;-50
2022/08/30 02:21:43;;;;;;;;;;;;;;;14.83;100.00;100291.06;3056691;19;895;-51
2022/08/30 02:22:47;;;;;;;;;;;;;;;14.82;100.00;100300.09;3056885;19;977;-51
2022/08/30 02:23:50;;;;;;;;;;;;;;;14.80;100.00;100294.84;3056601;19;1039;-51
2022/08/30 02:24:54;;;;;;;;;;;;;;;14.78;100.00;100294.13;3056133;19;1846;-50
2022/08/30 02:25:56;;;;;;;;;;;;;;;14.78;100.00;100299.47;3056866;19;843;-50
2022/08/30 02:27:01;;;;;;;;;;;;;;;14.76;100.00;100299.59;3057110;19;897;-51
2022/08/30 02:28:03;;;;;;;;;;;;;;;14.75;100.00;100305.09;3056518;19;961;-49
2022/08/30 02:29:09;;;;;;;;;;;;;;;14.74;100.00;100295.34;3056116;19;912;-51
2022/08/30 02:30:11;;;;;;;;;;;;;;;14.73;100.00;100297.16;3055927;19;1000;-50
2022/08/30 02:31:16;;;;;;;;;;;;;;;14.73;100.00;100301.72;3056250;19;1115;-50
2022/08/30 02:32:21;;;;;;;;;;;;;;;14.71;100.00;100304.53;3056599;19;1284;-51
2022/08/30 02:33:25;;;;;;;;;;;;;;;14.72;100.00;100300.84;3060046;19;909;-50
2022/08/30 02:34:27;;;;;;;;;;;;;;;14.71;100.00;100301.84;3059353;19;882;-51
2022/08/30 02:35:31;;;;;;;;;;;;;;;14.70;100.00;100302.81;3059573;19;953;-51
2022/08/30 02:36:33;;;;;;;;;;;;;;;14.69;100.00;100306.47;3059511;19;1018;-51
2022/08/30 02:37:38;;;;;;;;;;;;;;;14.69;100.00;100306.47;3059756;19;1150;-50
2022/08/30 02:38:40;;;;;;;;;;;;;;;14.69;100.00;100303.78;3059539;19;925;-51
2022/08/30 02:39:44;;;;;;;;;;;;;;;14.70;100.00;100307.31;3059938;19;952;-50
2022/08/30 02:40:46;;;;;;;;;;;;;;;14.69;100.00;100301.09;3058697;19;1010;-50
2022/08/30 02:41:50;;;;;;;;;;;;;;;14.70;100.00;100310.00;3058732;19;1052;-50
2022/08/30 02:42:52;;;;;;;;;;;;;;;14.70;100.00;100307.31;3059647;19;1043;-51
2022/08/30 02:43:59;;;;;;;;;;;;;;;14.69;100.00;100306.47;3059509;19;1047;-51
2022/08/30 02:45:01;;;;;;;;;;;;;;;14.69;100.00;100302.94;3059206;19;1859;-50
2022/08/30 02:46:05;;;;;;;;;;;;;;;14.68;100.00;100304.75;3059413;19;1036;-50
2022/08/30 02:47:07;;;;;;;;;;;;;;;14.67;100.00;100305.75;3059600;19;949;-51
2022/08/30 02:48:12;;;;;;;;;;;;;;;14.68;100.00;100299.38;3059530;19;874;-51
2022/08/30 02:49:14;;;;;;;;;;;;;;;14.67;100.00;100303.06;3059435;19;888;-50
2022/08/30 02:50:45;;;;;;;;;;;;;;;14.69;100.00;100300.25;3058899;19;2208;-51
2022/08/30 02:51:47;;;;;;;;;;;;;;;14.68;100.00;100304.75;3059630;19;983;-49
2022/08/30 02:52:51;;;;;;;;;;;;;;;14.68;100.00;100299.38;3059334;19;1281;-50
2022/08/30 02:53:54;;;;;;;;;;;;;;;14.69;100.00;100298.41;3059396;19;1032;-50
2022/08/30 02:54:59;;;;;;;;;;;;;;;14.70;100.00;100297.44;3058414;19;1040;-51
2022/08/30 02:56:01;;;;;;;;;;;;;;;14.70;100.00;100296.59;3058804;19;901;-51
2022/08/30 02:57:06;;;;;;;;;;;;;;;14.71;100.00;100291.09;3059016;19;1726;-52
2022/08/30 02:58:20;;;;;;;;;;;;;;;14.70;100.00;100297.44;3059876;19;746;-49
2022/08/30 02:59:25;;;;;;;;;;;;;;;14.71;100.00;100288.41;3059324;19;916;-51
2022/08/30 03:00:27;;;;;;;;;;;;;;;14.71;100.00;100288.41;3059780;19;906;-51
2022/08/30 03:01:34;;;;;;;;;;;;;;;14.72;100.00;100295.50;3059136;19;1044;-49
2022/08/30 03:02:39;;;;;;;;;;;;;;;14.74;100.00;100293.50;3059409;19;949;-50
2022/08/30 03:03:42;;;;;;;;;;;;;;;14.74;100.00;100287.28;3058771;19;1064;-51
2022/08/30 03:04:46;;;;;;;;;;;;;;;14.75;100.00;100289.84;3059413;19;1178;-52
2022/08/30 03:05:48;;;;;;;;;;;;;;;14.75;100.00;100284.47;3058273;19;1862;-50
2022/08/30 03:06:53;;;;;;;;;;;;;;;14.74;100.00;100282.75;3059403;19;1047;-49
2022/08/30 03:07:54;;;;;;;;;;;;;;;14.74;100.00;100285.44;3059251;19;955;-51
2022/08/30 03:08:59;;;;;;;;;;;;;;;14.75;100.00;100289.84;3058930;19;1736;-51
2022/08/30 03:10:01;;;;;;;;;;;;;;;14.74;100.00;100290.81;3058986;19;1007;-52
2022/08/30 03:11:05;;;;;;;;;;;;;;;14.75;100.00;100295.22;3059147;19;936;-50
2022/08/30 03:12:07;;;;;;;;;;;;;;;14.75;100.00;100295.22;3059005;19;1098;-50
2022/08/30 03:13:12;;;;;;;;;;;;;;;14.76;100.00;100296.06;3059335;19;853;-50
2022/08/30 03:14:14;;;;;;;;;;;;;;;14.75;100.00;100295.22;3059210;19;873;-50
2022/08/30 03:15:18;;;;;;;;;;;;;;;14.75;100.00;100300.59;3059274;19;995;-51
2022/08/30 03:16:21;;;;;;;;;;;;;;;14.76;100.00;100294.22;3059056;19;849;-51
2022/08/30 03:17:25;;;;;;;;;;;;;;;14.76;100.00;100294.22;3059017;19;885;-50
2022/08/30 03:18:27;;;;;;;;;;;;;;;14.76;100.00;100296.91;3059062;19;1311;-51
2022/08/30 03:19:31;;;;;;;;;;;;;;;14.75;100.00;100300.59;3059014;19;901;-49
2022/08/30 03:20:34;;;;;;;;;;;;;;;14.76;100.00;100298.75;3058262;19;1297;-51
2022/08/30 03:21:38;;;;;;;;;;;;;;;14.69;100.00;100284.13;3058377;19;874;-50
2022/08/30 03:22:40;;;;;;;;;;;;;;;14.77;100.00;100301.31;3059111;19;953;-51
2022/08/30 03:23:45;;;;;;;;;;;;;;;14.77;100.00;100298.63;3058877;19;898;-51
2022/08/30 03:24:46;;;;;;;;;;;;;;;14.76;100.00;100296.91;3058938;19;948;-50
2022/08/30 03:25:52;;;;;;;;;;;;;;;14.76;100.00;100296.91;3057974;19;1898;-51
2022/08/30 03:26:54;;;;;;;;;;;;;;;14.78;100.00;100280.69;3058200;19;972;-52
2022/08/30 03:27:58;;;;;;;;;;;;;;;14.78;100.00;100284.22;3058993;19;928;-51
2022/08/30 03:29:00;;;;;;;;;;;;;;;14.79;100.00;100290.44;3058849;19;1037;-50
2022/08/30 03:30:05;;;;;;;;;;;;;;;14.81;100.00;100287.63;3058113;19;1015;-50
2022/08/30 03:31:07;;;;;;;;;;;;;;;14.82;100.00;100283.97;3058124;19;996;-55
2022/08/30 03:32:13;;;;;;;;;;;;;;;14.82;100.00;100283.97;3058673;19;875;-51
2022/08/30 03:33:15;;;;;;;;;;;;;;;14.82;100.00;100284.84;3058870;19;956;-51
2022/08/30 03:34:21;;;;;;;;;;;;;;;14.83;100.00;100291.06;3058696;19;952;-51
2022/08/30 03:35:23;;;;;;;;;;;;;;;14.84;100.00;100292.78;3059099;19;1757;-51
2022/08/30 03:36:27;;;;;;;;;;;;;;;14.84;100.00;100284.72;3058563;19;1154;-51
2022/08/30 03:37:29;;;;;;;;;;;;;;;14.85;100.00;100291.78;3059006;19;1339;-51
2022/08/30 03:38:34;;;;;;;;;;;;;;;14.85;100.00;100289.09;3058896;19;925;-51
2022/08/30 03:39:36;;;;;;;;;;;;;;;14.86;100.00;100290.78;3058935;19;952;-49
2022/08/30 03:40:40;;;;;;;;;;;;;;;14.86;100.00;100296.16;3058545;19;976;-50
2022/08/30 03:41:42;;;;;;;;;;;;;;;14.87;100.00;100282.59;3058656;19;1000;-51
2022/08/30 03:42:47;;;;;;;;;;;;;;;14.86;100.00;100288.09;3058553;19;1027;-50
2022/08/30 03:43:49;;;;;;;;;;;;;;;14.88;100.00;100283.47;3058148;19;904;-50
2022/08/30 03:44:54;;;;;;;;;;;;;;;14.88;100.00;100280.78;3057025;19;873;-51
2022/08/30 03:45:56;;;;;;;;;;;;;;;14.90;100.00;100278.81;3058660;19;1872;-49
2022/08/30 03:47:00;;;;;;;;;;;;;;;14.91;100.00;100280.53;3058229;19;1015;-51
2022/08/30 03:48:02;;;;;;;;;;;;;;;14.91;100.00;100284.06;3058812;19;1018;-50
2022/08/30 03:49:07;;;;;;;;;;;;;;;14.92;100.00;100282.22;3058375;19;941;-50
2022/08/30 03:50:09;;;;;;;;;;;;;;;14.93;100.00;100275.88;3057667;19;1182;-50
2022/08/30 03:51:14;;;;;;;;;;;;;;;14.94;100.00;100286.50;3058534;19;922;-50
2022/08/30 03:52:15;;;;;;;;;;;;;;;14.95;100.00;100288.22;3058541;19;978;-51
2022/08/30 03:53:21;;;;;;;;;;;;;;;14.97;100.00;100280.03;3058502;19;972;-51
2022/08/30 03:54:27;;;;;;;;;;;;;;;14.97;100.00;100283.53;3058852;19;874;-51
2022/08/30 03:55:32;;;;;;;;;;;;;;;14.97;100.00;100283.53;3058434;19;976;-51
2022/08/30 03:56:34;;;;;;;;;;;;;;;14.98;100.00;100285.25;3058922;19;1452;-51
2022/08/30 03:57:39;;;;;;;;;;;;;;;14.99;100.00;100286.97;3059530;19;1135;-52
2022/08/30 03:58:44;;;;;;;;;;;;;;;15.00;100.00;100287.81;3058259;19;961;-52
2022/08/30 03:59:48;;;;;;;;;;;;;;;15.01;100.00;100281.47;3058535;19;916;-52
2022/08/30 04:00:50;;;;;;;;;;;;;;;15.03;100.00;100292.94;3058622;19;1741;-51
2022/08/30 04:01:55;;;;;;;;;;;;;;;15.04;100.00;100291.97;3058423;19;937;-49
2022/08/30 04:02:59;;;;;;;;;;;;;;;15.07;100.00;100294.41;3058434;19;1035;-51
2022/08/30 04:04:01;;;;;;;;;;;;;;;15.08;100.00;100296.13;3058120;19;969;-50
2022/08/30 04:05:06;;;;;;;;;;;;;;;15.09;100.00;100293.28;3058709;19;1161;-50
2022/08/30 04:06:08;;;;;;;;;;;;;;;15.11;100.00;100301.22;3058043;19;1853;-51
2022/08/30 04:07:13;;;;;;;;;;;;;;;15.10;100.00;100288.75;3058574;19;952;-50
2022/08/30 04:08:15;;;;;;;;;;;;;;;15.13;100.00;100293.88;3058261;19;1181;-50
2022/08/30 04:09:19;;;;;;;;;;;;;;;15.14;100.00;100296.44;3058366;19;991;-52
2022/08/30 04:10:21;;;;;;;;;;;;;;;15.18;100.00;100297.03;3057664;19;1003;-50
2022/08/30 04:11:25;;;;;;;;;;;;;;;15.23;100.00;100300.19;3058689;19;1142;-51
2022/08/30 04:12:27;;;;;;;;;;;;;;;15.54;100.00;100302.97;3058135;19;928;-51
2022/08/30 04:13:32;;;;;;;;;;;;;;;15.98;100.00;100301.88;3058508;19;885;-50
2022/08/30 04:14:34;;;;;;;;;;;;;;;16.36;100.00;100314.66;3058449;19;890;-50
2022/08/30 04:15:38;;;;;;;;;;;;;;;16.64;100.00;100322.03;3058108;19;1240;-50
2022/08/30 04:16:41;;;;;;;;;;;;;;;16.89;100.00;100332.31;3057868;19;1705;-50
2022/08/30 04:17:45;;;;;;;;;;;;;;;17.07;100.00;100343.25;3059447;19;1319;-52
2022/08/30 04:18:47;;;;;;;;;;;;;;;17.28;100.00;100354.78;3058264;19;1594;-50
2022/08/30 04:19:52;;;;;;;;;;;;;;;17.50;100.00;100369.88;3059777;19;921;-51
2022/08/30 04:20:54;;;;;;;;;;;;;;;17.71;100.00;100385.09;3057961;19;1468;-51
2022/08/30 04:21:59;;;;;;;;;;;;;;;17.88;100.00;100406.81;3057008;19;1165;-51
2022/08/30 04:23:01;;;;;;;;;;;;;;;18.06;100.00;100415.03;3056436;19;881;-51
2022/08/30 04:24:06;;;;;;;;;;;;;;;18.27;100.00;100437.31;3056211;19;953;-50
2022/08/30 04:25:08;;;;;;;;;;;;;;;18.45;100.00;100452.81;3056426;19;1094;-50
2022/08/30 04:26:18;;;;;;;;;;;;;;;18.59;100.00;100482.09;3055865;19;1888;-51
2022/08/30 04:27:20;;;;;;;;;;;;;;;18.76;100.00;100502.97;3056052;19;1638;-50
2022/08/30 04:28:25;;;;;;;;;;;;;;;18.70;100.00;100517.09;3056202;19;901;-52
2022/08/30 04:29:26;;;;;;;;;;;;;;;18.17;100.00;100533.72;3056082;19;960;-51
2022/08/30 04:30:31;;;;;;;;;;;;;;;17.76;100.00;100532.13;3055715;19;984;-50
2022/08/30 04:31:35;;;;;;;;;;;;;;;17.48;100.00;100530.19;3056218;19;829;-51
2022/08/30 04:32:37;;;;;;;;;;;;;;;17.29;100.00;100521.03;3056010;19;858;-51
2022/08/30 04:33:43;;;;;;;;;;;;;;;17.12;100.00;100515.44;3056309;19;945;-50
2022/08/30 04:34:45;;;;;;;;;;;;;;;16.99;100.00;100514.81;3055073;19;961;-50
2022/08/30 04:35:52;;;;;;;;;;;;;;;16.89;100.00;100514.78;3055875;19;1045;-50
2022/08/30 04:36:54;;;;;;;;;;;;;;;16.81;100.00;100504.63;3056244;19;929;-51
2022/08/30 04:38:00;;;;;;;;;;;;;;;16.78;100.00;100496.84;3058030;19;969;-51
2022/08/30 04:39:02;;;;;;;;;;;;;;;16.73;100.00;100501.78;3056991;19;917;-51
2022/08/30 04:40:07;;;;;;;;;;;;;;;16.74;100.00;100499.94;3057502;19;878;-50
2022/08/30 04:41:11;;;;;;;;;;;;;;;16.76;100.00;100482.66;3057894;19;976;-51
2022/08/30 04:42:15;;;;;;;;;;;;;;;16.77;100.00;100484.34;3058005;19;1661;-50
2022/08/30 04:43:17;;;;;;;;;;;;;;;16.82;100.00;100482.09;3057836;19;1051;-50
2022/08/30 04:44:22;;;;;;;;;;;;;;;16.85;100.00;100481.84;3057782;19;1059;-51
2022/08/30 04:45:23;;;;;;;;;;;;;;;16.90;100.00;100479.56;3057714;19;774;-51
2022/08/30 04:46:28;;;;;;;;;;;;;;;16.95;100.00;100478.31;3056918;19;1842;-50
2022/08/30 04:47:30;;;;;;;;;;;;;;;16.99;100.00;100479.75;3056945;19;957;-50
2022/08/30 04:48:35;;;;;;;;;;;;;;;17.02;100.00;100476.81;3058001;19;1110;-50
2022/08/30 04:49:36;;;;;;;;;;;;;;;17.04;100.00;100478.34;3057885;19;1025;-50
2022/08/30 04:50:41;;;;;;;;;;;;;;;17.07;100.00;100475.38;3057830;19;1685;-49
2022/08/30 04:51:45;;;;;;;;;;;;;;;17.12;100.00;100472.28;3057610;19;1008;-50
2022/08/30 04:52:49;;;;;;;;;;;;;;;17.16;100.00;100484.50;3057960;19;1376;-51
2022/08/30 04:53:51;;;;;;;;;;;;;;;17.16;100.00;100479.09;3058009;19;945;-51
2022/08/30 04:54:57;;;;;;;;;;;;;;;17.20;100.00;100481.41;3057757;19;877;-50
2022/08/30 04:55:58;;;;;;;;;;;;;;;17.23;100.00;100485.66;3057379;19;864;-51
2022/08/30 04:57:03;;;;;;;;;;;;;;;17.24;100.00;100495.47;3057992;19;952;-51
2022/08/30 04:58:05;;;;;;;;;;;;;;;17.28;100.00;100488.78;3057764;19;922;-49
2022/08/30 04:59:09;;;;;;;;;;;;;;;17.29;100.00;100490.50;3057755;19;951;-50
2022/08/30 05:00:12;;;;;;;;;;;;;;;17.29;100.00;100491.34;3058052;19;978;-51
2022/08/30 05:01:17;;;;;;;;;;;;;;;17.36;100.00;100488.13;3057778;19;1458;-51
2022/08/30 05:02:23;;;;;;;;;;;;;;;17.36;100.00;100497.06;3057393;19;1093;-51
2022/08/30 05:03:25;;;;;;;;;;;;;;;17.40;100.00;100489.53;3057908;19;897;-50
2022/08/30 05:04:29;;;;;;;;;;;;;;;17.45;100.00;100501.63;3057417;19;1795;-51
2022/08/30 05:05:40;;;;;;;;;;;;;;;17.50;100.00;100499.38;3057785;19;996;-51
2022/08/30 05:06:45;;;;;;;;;;;;;;;17.52;100.00;100493.81;3056542;19;1846;-51
2022/08/30 05:07:47;;;;;;;;;;;;;;;17.56;100.00;100504.22;3056609;19;1028;-50
2022/08/30 05:08:52;;;;;;;;;;;;;;;17.61;100.00;100501.97;3056823;19;980;-51
2022/08/30 05:09:54;;;;;;;;;;;;;;;17.68;100.00;100506.81;3057508;19;941;-50
2022/08/30 05:10:59;;;;;;;;;;;;;;;17.72;100.00;100492.91;3057983;19;995;-51
2022/08/30 05:12:01;;;;;;;;;;;;;;;17.80;100.00;100511.09;3057678;19;834;-51
2022/08/30 05:13:05;;;;;;;;;;;;;;;17.84;100.00;100508.00;3057710;19;877;-50
2022/08/30 05:14:10;;;;;;;;;;;;;;;17.90;100.00;100517.38;3056585;19;1011;-52
2022/08/30 05:15:12;;;;;;;;;;;;;;;17.95;100.00;100523.22;3057330;19;965;-49
2022/08/30 05:16:18;;;;;;;;;;;;;;;17.99;100.00;100524.66;3057442;19;957;-51
2022/08/30 05:17:20;;;;;;;;;;;;;;;17.99;100.00;100527.34;3057614;19;1024;-52
2022/08/30 05:18:24;;;;;;;;;;;;;;;18.03;100.00;100528.75;3057388;19;907;-50
2022/08/30 05:19:26;;;;;;;;;;;;;;;18.09;100.00;100541.69;3057529;19;830;-51
2022/08/30 05:20:31;;;;;;;;;;;;;;;18.13;100.00;100535.00;3057377;19;885;-49
2022/08/30 05:21:32;;;;;;;;;;;;;;;18.18;100.00;100543.53;3057317;19;952;-50
2022/08/30 05:22:38;;;;;;;;;;;;;;;18.21;100.00;100543.28;3057316;19;964;-53
2022/08/30 05:23:41;;;;;;;;;;;;;;;18.23;100.00;100545.84;3057559;19;1033;-50
2022/08/30 05:24:45;;;;;;;;;;;;;;;18.24;100.00;100545.66;3057424;19;1761;-51
2022/08/30 05:25:47;;;;;;;;;;;;;;;18.28;100.00;100543.53;3057250;19;977;-50
2022/08/30 05:26:51;;;;;;;;;;;;;;;18.25;100.00;100543.81;3057702;19;818;-51
2022/08/30 05:27:53;;;;;;;;;;;;;;;18.33;100.00;100558.34;3056490;19;1900;-51
2022/08/30 05:28:58;;;;;;;;;;;;;;;18.33;100.00;100563.75;3057290;19;1012;-51
2022/08/30 05:30:00;;;;;;;;;;;;;;;18.26;100.00;100583.34;3057575;19;1179;-51
2022/08/30 05:31:04;;;;;;;;;;;;;;;18.26;100.00;100577.94;3057331;19;988;-51
2022/08/30 05:32:17;;;;;;;;;;;;;;;18.24;100.00;100583.47;3057521;19;1069;-51